SAS7840 LDSP-ESSA
Flight info
| Callsign | SAS7840 |
|---|---|
| Flight time | N/A |
| Altitude | 37000 |
| Route | UNIPA DCT KOPRY DCT XENAK/N0444F380 DCT DESEN DCT BEZMI DCT PENOR/ DCT VSB DCT ROGMI Z229 NILUG |
| Aircraft | A319/M-SDE3FGIJ1RWXY/LB1 |
Departure
| Time | N/A |
|---|---|
| Airport | Split Saint Jerome Airport (LDSP) |
Arrival
| Time | 2026-05-07 19:42 |
|---|---|
| Airport | Stockholm-Arlanda Airport (ESSA) |
| Time | Latitude | Longitude | Altitude | Speed | Heading |
|---|---|---|---|---|---|
| 2026-05-07 19:04 | 56.59237 | 17.70414 | 37178 ft | 451 kts | 16° |
| 2026-05-07 19:05 | 56.65210 | 17.73908 | 37184 ft | 451 kts | 15° |
| 2026-05-07 19:05 | 56.71189 | 17.77409 | 37182 ft | 450 kts | 16° |
| 2026-05-07 19:06 | 56.77163 | 17.80934 | 37184 ft | 450 kts | 16° |
| 2026-05-07 19:06 | 56.86111 | 17.86228 | 37181 ft | 450 kts | 15° |
| 2026-05-07 19:07 | 56.92036 | 17.89745 | 37177 ft | 450 kts | 15° |
| 2026-05-07 19:07 | 56.97994 | 17.93303 | 37180 ft | 450 kts | 15° |
| 2026-05-07 19:08 | 57.03953 | 17.96862 | 37174 ft | 450 kts | 15° |
| 2026-05-07 19:08 | 57.06974 | 17.98266 | 37174 ft | 446 kts | 4° |
| 2026-05-07 19:08 | 57.10057 | 17.98425 | 37176 ft | 442 kts | 356° |
| 2026-05-07 19:09 | 57.16222 | 17.98123 | 37173 ft | 442 kts | 355° |
| 2026-05-07 19:09 | 57.22348 | 17.97744 | 37181 ft | 442 kts | 355° |
| 2026-05-07 19:10 | 57.28507 | 17.97384 | 37177 ft | 442 kts | 355° |
| 2026-05-07 19:10 | 57.34655 | 17.97041 | 37179 ft | 442 kts | 355° |
| 2026-05-07 19:11 | 57.40797 | 17.96701 | 37192 ft | 441 kts | 355° |
| 2026-05-07 19:11 | 57.46935 | 17.96340 | 37182 ft | 441 kts | 355° |
| 2026-05-07 19:12 | 57.49965 | 17.96162 | 37003 ft | 440 kts | 355° |
| 2026-05-07 19:12 | 57.53026 | 17.95988 | 36742 ft | 439 kts | 355° |
| 2026-05-07 19:12 | 57.56073 | 17.95819 | 36486 ft | 438 kts | 355° |
| 2026-05-07 19:12 | 57.59126 | 17.95650 | 36232 ft | 437 kts | 355° |
| 2026-05-07 19:13 | 57.62163 | 17.95483 | 35982 ft | 435 kts | 355° |
| 2026-05-07 19:13 | 57.65193 | 17.95317 | 35737 ft | 434 kts | 355° |
| 2026-05-07 19:13 | 57.68215 | 17.95150 | 35490 ft | 433 kts | 355° |
| 2026-05-07 19:13 | 57.71184 | 17.94980 | 35234 ft | 429 kts | 355° |
| 2026-05-07 19:14 | 57.74164 | 17.94809 | 34785 ft | 426 kts | 355° |
| 2026-05-07 19:14 | 57.77131 | 17.94635 | 34317 ft | 423 kts | 355° |
| 2026-05-07 19:14 | 57.80074 | 17.94465 | 33803 ft | 420 kts | 355° |
| 2026-05-07 19:14 | 57.82951 | 17.94304 | 33345 ft | 416 kts | 355° |
| 2026-05-07 19:15 | 57.85827 | 17.94143 | 32885 ft | 412 kts | 355° |
| 2026-05-07 19:15 | 57.88679 | 17.94033 | 32408 ft | 409 kts | 359° |
| 2026-05-07 19:15 | 57.91523 | 17.94379 | 31878 ft | 408 kts | 1° |
| 2026-05-07 19:15 | 57.94350 | 17.94808 | 31413 ft | 405 kts | 1° |
| 2026-05-07 19:16 | 57.97147 | 17.95277 | 30964 ft | 402 kts | 1° |
| 2026-05-07 19:16 | 57.99922 | 17.95759 | 30523 ft | 398 kts | 1° |
| 2026-05-07 19:16 | 58.02641 | 17.96229 | 30053 ft | 395 kts | 1° |
| 2026-05-07 19:16 | 58.05375 | 17.96690 | 29616 ft | 391 kts | 1° |
| 2026-05-07 19:17 | 58.08072 | 17.97134 | 29196 ft | 386 kts | 0° |
| 2026-05-07 19:17 | 58.10738 | 17.97569 | 28792 ft | 383 kts | 0° |
| 2026-05-07 19:17 | 58.13386 | 17.98001 | 28395 ft | 379 kts | 0° |
| 2026-05-07 19:17 | 58.16010 | 17.98427 | 27997 ft | 376 kts | 0° |
| 2026-05-07 19:18 | 58.18604 | 17.98848 | 27618 ft | 373 kts | 0° |
| 2026-05-07 19:18 | 58.21157 | 17.99264 | 27242 ft | 370 kts | 0° |
| 2026-05-07 19:18 | 58.23713 | 17.99676 | 26864 ft | 367 kts | 0° |
| 2026-05-07 19:18 | 58.26245 | 18.00084 | 26490 ft | 363 kts | 360° |
| 2026-05-07 19:19 | 58.28750 | 18.00489 | 26116 ft | 360 kts | 360° |
| 2026-05-07 19:19 | 58.31242 | 18.00890 | 25732 ft | 357 kts | 360° |
| 2026-05-07 19:19 | 58.33709 | 18.01288 | 25354 ft | 354 kts | 360° |
| 2026-05-07 19:19 | 58.36154 | 18.01691 | 24968 ft | 351 kts | 360° |
| 2026-05-07 19:20 | 58.38586 | 18.02098 | 24574 ft | 349 kts | 360° |
| 2026-05-07 19:20 | 58.40999 | 18.02500 | 24181 ft | 347 kts | 359° |
| 2026-05-07 19:20 | 58.43374 | 18.02889 | 23783 ft | 345 kts | 359° |
| 2026-05-07 19:20 | 58.45768 | 18.03283 | 23329 ft | 343 kts | 359° |
| 2026-05-07 19:21 | 58.48139 | 18.03679 | 22927 ft | 340 kts | 359° |
| 2026-05-07 19:21 | 58.50493 | 18.04075 | 22517 ft | 337 kts | 359° |
| 2026-05-07 19:21 | 58.52822 | 18.04463 | 22111 ft | 334 kts | 359° |
| 2026-05-07 19:21 | 58.55129 | 18.04848 | 21713 ft | 332 kts | 359° |
| 2026-05-07 19:22 | 58.57425 | 18.05229 | 21315 ft | 329 kts | 359° |
| 2026-05-07 19:22 | 58.59676 | 18.05601 | 20922 ft | 327 kts | 359° |
| 2026-05-07 19:22 | 58.61940 | 18.05969 | 20524 ft | 326 kts | 359° |
| 2026-05-07 19:22 | 58.64200 | 18.06336 | 20129 ft | 324 kts | 359° |
| 2026-05-07 19:23 | 58.66445 | 18.06707 | 19724 ft | 323 kts | 360° |
| 2026-05-07 19:23 | 58.68681 | 18.07084 | 19338 ft | 322 kts | 360° |
| 2026-05-07 19:23 | 58.70909 | 18.07460 | 18940 ft | 320 kts | 360° |
| 2026-05-07 19:23 | 58.73126 | 18.07838 | 18550 ft | 320 kts | 0° |
| 2026-05-07 19:24 | 58.75345 | 18.08216 | 18116 ft | 318 kts | 0° |
| 2026-05-07 19:24 | 58.77520 | 18.08584 | 17721 ft | 316 kts | 0° |
| 2026-05-07 19:24 | 58.79708 | 18.08953 | 17331 ft | 313 kts | 0° |
| 2026-05-07 19:24 | 58.81872 | 18.09314 | 17006 ft | 314 kts | 0° |
| 2026-05-07 19:25 | 58.84075 | 18.09672 | 16779 ft | 320 kts | 0° |
| 2026-05-07 19:25 | 58.86304 | 18.10035 | 16529 ft | 320 kts | 0° |
| 2026-05-07 19:25 | 58.88523 | 18.10403 | 16278 ft | 319 kts | 0° |
| 2026-05-07 19:25 | 58.90706 | 18.10760 | 16025 ft | 317 kts | 0° |
| 2026-05-07 19:26 | 58.92910 | 18.11119 | 15777 ft | 316 kts | 0° |
| 2026-05-07 19:26 | 58.95100 | 18.11483 | 15528 ft | 315 kts | 0° |
| 2026-05-07 19:26 | 58.97282 | 18.11844 | 15281 ft | 313 kts | 0° |
| 2026-05-07 19:26 | 58.99452 | 18.12203 | 15033 ft | 312 kts | 1° |
| 2026-05-07 19:27 | 59.01613 | 18.12564 | 14786 ft | 310 kts | 1° |
| 2026-05-07 19:27 | 59.03762 | 18.12923 | 14540 ft | 309 kts | 1° |
| 2026-05-07 19:27 | 59.05877 | 18.13277 | 14302 ft | 308 kts | 1° |
| 2026-05-07 19:27 | 59.08010 | 18.13632 | 14053 ft | 306 kts | 1° |
| 2026-05-07 19:28 | 59.10133 | 18.13981 | 13792 ft | 305 kts | 1° |
| 2026-05-07 19:28 | 59.12239 | 18.14306 | 13561 ft | 303 kts | 0° |
| 2026-05-07 19:28 | 59.14342 | 18.14612 | 13318 ft | 302 kts | 0° |
| 2026-05-07 19:28 | 59.16431 | 18.14912 | 13080 ft | 300 kts | 0° |
| 2026-05-07 19:29 | 59.18487 | 18.15209 | 12848 ft | 299 kts | 0° |
| 2026-05-07 19:29 | 59.20560 | 18.15504 | 12609 ft | 297 kts | 1° |
| 2026-05-07 19:29 | 59.22623 | 18.15795 | 12384 ft | 296 kts | 0° |
| 2026-05-07 19:29 | 59.24670 | 18.16087 | 12149 ft | 294 kts | 1° |
| 2026-05-07 19:30 | 59.26714 | 18.16385 | 11918 ft | 293 kts | 1° |
| 2026-05-07 19:30 | 59.28745 | 18.16681 | 11686 ft | 292 kts | 1° |
| 2026-05-07 19:30 | 59.30767 | 18.16980 | 11455 ft | 290 kts | 1° |
| 2026-05-07 19:30 | 59.32785 | 18.17283 | 11229 ft | 289 kts | 1° |
| 2026-05-07 19:31 | 59.33638 | 18.17416 | 11179 ft | 288 kts | 1° |
| 2026-05-07 19:31 | 59.35648 | 18.17724 | 10765 ft | 289 kts | 1° |
| 2026-05-07 19:31 | 59.37649 | 18.18010 | 10444 ft | 285 kts | 1° |
| 2026-05-07 19:32 | 59.39605 | 18.18287 | 10197 ft | 279 kts | 1° |
| 2026-05-07 19:32 | 59.41531 | 18.18555 | 9934 ft | 276 kts | 1° |
| 2026-05-07 19:32 | 59.43448 | 18.18709 | 9660 ft | 273 kts | 355° |
| 2026-05-07 19:32 | 59.45343 | 18.18477 | 9384 ft | 272 kts | 353° |
| 2026-05-07 19:33 | 59.47202 | 18.18186 | 9117 ft | 271 kts | 353° |
| 2026-05-07 19:33 | 59.49083 | 18.17872 | 8850 ft | 270 kts | 353° |
| 2026-05-07 19:33 | 59.50953 | 18.17548 | 8581 ft | 269 kts | 353° |
| 2026-05-07 19:33 | 59.52820 | 18.17213 | 8302 ft | 268 kts | 353° |
| 2026-05-07 19:34 | 59.54676 | 18.16867 | 8036 ft | 268 kts | 353° |
| 2026-05-07 19:34 | 59.56531 | 18.16513 | 7776 ft | 267 kts | 353° |
| 2026-05-07 19:34 | 59.58379 | 18.16149 | 7518 ft | 266 kts | 353° |
| 2026-05-07 19:34 | 59.60221 | 18.15774 | 7259 ft | 266 kts | 353° |
| 2026-05-07 19:35 | 59.62063 | 18.15388 | 6998 ft | 265 kts | 353° |
| 2026-05-07 19:35 | 59.63871 | 18.15001 | 6753 ft | 264 kts | 353° |
| 2026-05-07 19:35 | 59.65699 | 18.14604 | 6469 ft | 264 kts | 353° |
| 2026-05-07 19:35 | 59.67522 | 18.14200 | 6176 ft | 263 kts | 353° |
| 2026-05-07 19:36 | 59.69341 | 18.13760 | 5884 ft | 263 kts | 350° |
| 2026-05-07 19:36 | 59.71134 | 18.13084 | 5553 ft | 261 kts | 348° |
| 2026-05-07 19:36 | 59.72912 | 18.12365 | 5211 ft | 260 kts | 348° |
| 2026-05-07 19:36 | 59.74678 | 18.11639 | 4871 ft | 258 kts | 348° |
| 2026-05-07 19:37 | 59.76437 | 18.10908 | 4522 ft | 257 kts | 348° |
| 2026-05-07 19:37 | 59.78190 | 18.10171 | 4188 ft | 256 kts | 348° |
| 2026-05-07 19:37 | 59.79913 | 18.09321 | 3850 ft | 255 kts | 338° |
| 2026-05-07 19:37 | 59.81303 | 18.07272 | 3519 ft | 253 kts | 307° |
| 2026-05-07 19:38 | 59.81985 | 18.04112 | 3176 ft | 250 kts | 276° |
| 2026-05-07 19:38 | 59.81755 | 18.00768 | 2904 ft | 244 kts | 244° |
| 2026-05-07 19:38 | 59.80738 | 17.98213 | 2763 ft | 232 kts | 214° |
| 2026-05-07 19:38 | 59.79315 | 17.96979 | 2657 ft | 218 kts | 191° |
| 2026-05-07 19:39 | 59.77866 | 17.96449 | 2428 ft | 204 kts | 188° |
| 2026-05-07 19:39 | 59.76499 | 17.95961 | 2161 ft | 194 kts | 189° |
| 2026-05-07 19:39 | 59.75221 | 17.95498 | 1931 ft | 179 kts | 189° |
| 2026-05-07 19:39 | 59.74428 | 17.95209 | 1750 ft | 170 kts | 189° |
| 2026-05-07 19:40 | 59.72922 | 17.94661 | 1452 ft | 170 kts | 189° |
| 2026-05-07 19:40 | 59.71801 | 17.94252 | 1212 ft | 156 kts | 189° |
| 2026-05-07 19:40 | 59.70799 | 17.93886 | 1017 ft | 135 kts | 188° |
| 2026-05-07 19:40 | 59.69914 | 17.93554 | 790 ft | 125 kts | 188° |
| 2026-05-07 19:41 | 59.69077 | 17.93265 | 637 ft | 123 kts | 186° |
| 2026-05-07 19:41 | 59.68227 | 17.92957 | 481 ft | 122 kts | 187° |
| 2026-05-07 19:41 | 59.67402 | 17.92649 | 330 ft | 122 kts | 187° |
| 2026-05-07 19:41 | 59.66567 | 17.92350 | 159 ft | 121 kts | 187° |
| 2026-05-07 19:42 | 59.65809 | 17.92078 | 112 ft | 93 kts | 191° |
| 2026-05-07 19:42 | 59.65365 | 17.91916 | 104 ft | 29 kts | 189° |
| 2026-05-07 19:42 | 59.65195 | 17.91900 | 105 ft | 27 kts | 174° |
| 2026-05-07 19:42 | 59.65034 | 17.92014 | 104 ft | 16 kts | 148° |
| 2026-05-07 19:43 | 59.65022 | 17.92150 | 106 ft | 13 kts | 21° |
| 2026-05-07 19:43 | 59.65130 | 17.92193 | 107 ft | 18 kts | 11° |
| 2026-05-07 19:43 | 59.65266 | 17.92245 | 107 ft | 22 kts | 11° |
| 2026-05-07 19:43 | 59.65425 | 17.92344 | 105 ft | 26 kts | 36° |
| 2026-05-07 19:44 | 59.65530 | 17.92618 | 106 ft | 26 kts | 73° |
| 2026-05-07 19:44 | 59.65569 | 17.92928 | 109 ft | 22 kts | 76° |
| 2026-05-07 19:44 | 59.65525 | 17.93168 | 111 ft | 21 kts | 165° |
| 2026-05-07 19:44 | 59.65401 | 17.93246 | 112 ft | 19 kts | 153° |
| 2026-05-07 19:45 | 59.65312 | 17.93287 | 112 ft | 11 kts | 200° |
| 2026-05-07 19:45 | 59.65286 | 17.93188 | 112 ft | 3 kts | 249° |
| 2026-05-07 19:45 | 59.65282 | 17.93167 | 110 ft | 0 kts | 250° |